createdAt,value
2019-06-15T00:02:15.114Z,17.10
2019-06-15T00:05:22.168Z,17.10
2019-06-15T00:08:29.109Z,17.10
2019-06-15T00:11:36.119Z,17.00
2019-06-15T00:14:43.154Z,16.80
2019-06-15T00:17:50.119Z,16.70
2019-06-15T00:20:57.124Z,16.60
2019-06-15T00:24:04.160Z,16.50
2019-06-15T00:27:11.155Z,16.50
2019-06-15T00:30:18.132Z,16.40
2019-06-15T00:33:25.020Z,16.40
2019-06-15T00:36:32.007Z,16.40
2019-06-15T00:39:39.024Z,16.30
2019-06-15T00:42:46.003Z,16.20
2019-06-15T00:45:52.993Z,16.20
2019-06-15T00:48:59.977Z,16.20
2019-06-15T00:52:06.981Z,16.20
2019-06-15T00:55:14.010Z,16.30
2019-06-15T00:58:20.955Z,16.40
2019-06-15T01:01:27.958Z,16.40
2019-06-15T01:04:35.033Z,16.30
2019-06-15T01:07:42.024Z,16.30
2019-06-15T01:10:49.022Z,16.30
2019-06-15T01:13:55.980Z,16.40
2019-06-15T01:17:03.014Z,16.40
2019-06-15T01:20:10.608Z,16.40
2019-06-15T01:23:17.603Z,16.60
2019-06-15T01:26:24.599Z,16.60
2019-06-15T01:29:31.571Z,16.50
2019-06-15T01:32:38.571Z,16.50
2019-06-15T01:35:45.572Z,16.50
2019-06-15T01:38:52.581Z,16.50
2019-06-15T01:41:59.558Z,16.60
2019-06-15T01:45:08.081Z,16.60
2019-06-15T01:48:15.087Z,16.60
2019-06-15T01:51:22.078Z,16.70
2019-06-15T01:54:29.052Z,16.80
2019-06-15T01:57:36.030Z,16.70
2019-06-15T02:00:43.515Z,16.60
2019-06-15T02:03:50.461Z,16.60
2019-06-15T02:06:57.685Z,16.60
2019-06-15T02:10:04.909Z,16.70
2019-06-15T02:13:11.893Z,16.70
2019-06-15T02:16:18.906Z,16.80
2019-06-15T02:19:25.902Z,16.80
2019-06-15T02:22:32.913Z,16.80
2019-06-15T02:25:39.864Z,16.80
2019-06-15T02:28:46.805Z,16.80
2019-06-15T02:31:53.771Z,16.70
2019-06-15T02:35:00.776Z,16.70
2019-06-15T02:38:07.771Z,16.70
2019-06-15T02:41:14.829Z,16.60
2019-06-15T02:44:21.844Z,16.60
2019-06-15T02:47:28.815Z,16.60
2019-06-15T02:50:35.794Z,16.60
2019-06-15T02:53:45.427Z,16.40
2019-06-15T02:56:51.348Z,16.40
2019-06-15T02:59:58.367Z,16.40
2019-06-15T03:03:05.338Z,16.30
2019-06-15T03:06:12.639Z,16.30
2019-06-15T03:09:19.699Z,16.40
2019-06-15T03:12:26.701Z,16.50
2019-06-15T03:15:33.689Z,16.60
2019-06-15T03:18:40.676Z,16.70
2019-06-15T03:21:47.684Z,16.70
2019-06-15T03:24:54.679Z,16.70
2019-06-15T03:28:01.714Z,16.90
2019-06-15T03:31:08.723Z,17.00
2019-06-15T03:34:15.709Z,17.00
2019-06-15T03:37:22.649Z,17.00
2019-06-15T03:40:29.663Z,17.00
2019-06-15T03:43:36.626Z,17.10
2019-06-15T03:46:43.587Z,17.10
2019-06-15T03:49:50.621Z,17.10
2019-06-15T03:52:57.600Z,17.10
2019-06-15T03:56:04.579Z,17.00
2019-06-15T03:59:11.583Z,17.00
2019-06-15T04:02:18.579Z,16.80
2019-06-15T04:05:25.559Z,16.60
2019-06-15T04:08:32.549Z,16.70
2019-06-15T04:11:39.507Z,16.70
2019-06-15T04:14:46.475Z,16.70
2019-06-15T04:17:53.432Z,16.90
2019-06-15T04:21:00.433Z,17.20
2019-06-15T04:24:07.424Z,17.40
2019-06-15T04:27:14.413Z,17.50
2019-06-15T04:30:21.619Z,17.50
2019-06-15T04:33:28.603Z,17.60
2019-06-15T04:36:35.563Z,17.60
2019-06-15T04:39:42.511Z,17.60
2019-06-15T04:42:49.530Z,17.90
2019-06-15T04:45:56.552Z,17.90
2019-06-15T04:49:03.594Z,17.90
2019-06-15T04:52:10.599Z,17.90
2019-06-15T04:55:17.567Z,18.10
2019-06-15T04:58:24.638Z,18.30
2019-06-15T05:01:31.604Z,18.50
2019-06-15T05:04:38.593Z,18.60
2019-06-15T05:07:45.592Z,18.60
2019-06-15T05:10:52.559Z,18.60
2019-06-15T05:13:59.570Z,18.60
2019-06-15T05:17:06.579Z,18.60
2019-06-15T05:20:14.365Z,18.60
2019-06-15T05:23:21.412Z,18.80
2019-06-15T05:26:28.387Z,18.80
2019-06-15T05:29:35.384Z,19.00
2019-06-15T05:32:42.393Z,19.30
2019-06-15T05:35:49.379Z,19.50
2019-06-15T05:38:56.351Z,19.80
2019-06-15T05:42:03.343Z,20.10
2019-06-15T05:45:10.958Z,20.30
2019-06-15T05:48:17.937Z,20.40
2019-06-15T05:51:24.961Z,20.50
2019-06-15T05:54:31.946Z,20.60
2019-06-15T05:57:39.009Z,20.80
2019-06-15T06:00:46.021Z,21.00
2019-06-15T06:03:52.959Z,21.70
2019-06-15T06:06:59.978Z,22.30
2019-06-15T06:10:10.604Z,22.90
2019-06-15T06:13:16.062Z,23.20
2019-06-15T06:16:23.045Z,23.70
2019-06-15T06:19:30.050Z,24.70
2019-06-15T06:22:37.088Z,25.40
2019-06-15T06:25:44.100Z,25.40
2019-06-15T06:28:57.310Z,25.60
2019-06-15T06:31:59.692Z,25.50
2019-06-15T06:35:07.544Z,24.80
2019-06-15T06:38:14.555Z,24.70
2019-06-15T06:41:21.584Z,25.50
2019-06-15T06:44:28.564Z,25.80
2019-06-15T06:47:35.546Z,26.30
2019-06-15T06:50:42.599Z,27.70
2019-06-15T06:53:49.608Z,28.20
2019-06-15T06:56:56.620Z,28.70
2019-06-15T07:00:03.810Z,27.80
2019-06-15T07:03:10.790Z,27.10
2019-06-15T07:06:17.814Z,27.60
2019-06-15T07:09:24.817Z,28.20
2019-06-15T07:12:31.814Z,28.60
2019-06-15T07:15:38.835Z,27.50
2019-06-15T07:18:45.843Z,26.40
2019-06-15T07:21:52.888Z,25.90
2019-06-15T07:24:59.912Z,26.10
2019-06-15T07:28:08.404Z,26.70
2019-06-15T07:31:15.723Z,26.40
2019-06-15T07:34:22.731Z,26.10
2019-06-15T07:37:29.776Z,26.20
2019-06-15T07:40:36.838Z,26.00
2019-06-15T07:43:43.836Z,26.60
2019-06-15T07:46:50.884Z,27.10
2019-06-15T07:49:57.928Z,28.00
2019-06-15T07:53:04.917Z,28.40
2019-06-15T07:56:11.936Z,28.20
2019-06-15T07:59:18.922Z,27.80
2019-06-15T08:02:25.947Z,27.00
2019-06-15T08:05:33.163Z,26.10
2019-06-15T08:08:40.141Z,25.70
2019-06-15T08:11:47.140Z,25.40
2019-06-15T08:14:54.131Z,25.50
2019-06-15T08:18:01.175Z,25.50
2019-06-15T08:21:08.246Z,25.40
2019-06-15T08:24:15.267Z,25.20
2019-06-15T08:27:22.333Z,25.10
2019-06-15T08:30:42.446Z,25.20
2019-06-15T08:33:49.486Z,25.20
2019-06-15T08:36:56.477Z,25.50
2019-06-15T08:40:03.715Z,25.20
2019-06-15T08:43:10.705Z,25.40
2019-06-15T08:46:17.747Z,25.40
2019-06-15T08:49:24.712Z,24.80
2019-06-15T08:52:31.699Z,24.80
2019-06-15T08:55:38.808Z,24.90
2019-06-15T08:58:55.188Z,25.80
2019-06-15T09:01:54.459Z,26.10
2019-06-15T09:05:01.488Z,26.00
2019-06-15T09:08:08.492Z,25.90
2019-06-15T09:11:15.579Z,25.80
2019-06-15T09:14:22.557Z,25.30
2019-06-15T09:17:29.620Z,25.20
2019-06-15T09:20:36.648Z,25.20
2019-06-15T09:23:43.685Z,24.80
2019-06-15T09:26:50.692Z,24.70
2019-06-15T09:29:57.714Z,24.70
2019-06-15T09:33:04.817Z,25.00
2019-06-15T09:36:11.864Z,25.40
2019-06-15T09:39:18.863Z,26.10
2019-06-15T09:42:25.848Z,26.90
2019-06-15T09:45:33.175Z,28.30
2019-06-15T09:48:40.288Z,29.60
2019-06-15T09:51:47.305Z,29.90
2019-06-15T09:54:54.328Z,30.00
2019-06-15T09:58:01.364Z,29.90
2019-06-15T10:01:08.359Z,30.50
2019-06-15T10:04:15.355Z,31.10
2019-06-15T10:07:22.409Z,31.70
2019-06-15T10:10:29.441Z,31.40
2019-06-15T10:13:36.435Z,31.00
2019-06-15T10:16:43.464Z,31.30
2019-06-15T10:19:50.501Z,31.40
2019-06-15T10:22:57.514Z,31.00
2019-06-15T10:26:04.534Z,30.10
2019-06-15T10:29:11.539Z,30.50
2019-06-15T10:32:18.619Z,30.90
2019-06-15T10:35:25.556Z,31.30
2019-06-15T10:38:32.514Z,31.60
2019-06-15T10:41:39.533Z,31.00
2019-06-15T10:44:46.592Z,30.60
2019-06-15T10:47:53.656Z,29.70
2019-06-15T10:51:00.665Z,29.50
2019-06-15T10:54:07.678Z,29.00
2019-06-15T10:57:14.713Z,28.00
2019-06-15T11:00:22.672Z,28.00
2019-06-15T11:03:29.749Z,27.60
2019-06-15T11:06:36.730Z,27.30
2019-06-15T11:09:43.742Z,27.20
2019-06-15T11:12:50.731Z,26.80
2019-06-15T11:15:58.442Z,26.60
2019-06-15T11:19:05.550Z,26.40
2019-06-15T11:22:12.599Z,26.20
2019-06-15T11:25:19.583Z,26.20
2019-06-15T11:28:26.615Z,25.90
2019-06-15T11:31:33.593Z,25.80
2019-06-15T11:34:40.664Z,25.90
2019-06-15T11:37:47.699Z,26.30
2019-06-15T11:40:54.848Z,26.50
2019-06-15T11:44:01.931Z,26.60
2019-06-15T11:47:08.925Z,26.60
2019-06-15T11:50:15.941Z,26.70
2019-06-15T11:53:22.972Z,26.70
2019-06-15T11:56:30.017Z,26.70
2019-06-15T11:59:37.062Z,26.60
2019-06-15T12:02:44.103Z,26.60
2019-06-15T12:05:51.186Z,26.60
2019-06-15T12:08:58.179Z,26.40
2019-06-15T12:12:05.192Z,26.60
2019-06-15T12:15:12.220Z,26.60
2019-06-15T12:18:19.234Z,26.60
2019-06-15T12:21:26.284Z,26.50
2019-06-15T12:24:33.304Z,26.40
2019-06-15T12:27:40.306Z,26.30
2019-06-15T12:30:47.962Z,26.20
2019-06-15T12:33:54.984Z,26.10
2019-06-15T12:37:01.955Z,26.00
2019-06-15T12:40:09.089Z,25.80
2019-06-15T12:43:16.526Z,25.70
2019-06-15T12:46:23.515Z,25.50
2019-06-15T12:49:30.604Z,25.40
2019-06-15T12:52:37.617Z,25.50
2019-06-15T12:55:44.759Z,25.60
2019-06-15T12:58:51.787Z,25.80
2019-06-15T13:01:58.827Z,25.80
2019-06-15T13:05:06.338Z,25.70
2019-06-15T13:08:13.375Z,25.70
2019-06-15T13:11:20.365Z,25.40
2019-06-15T13:14:27.901Z,25.30
2019-06-15T13:17:34.881Z,25.30
2019-06-15T13:20:41.950Z,25.30
2019-06-15T13:23:49.001Z,25.40
2019-06-15T13:26:55.988Z,25.40
2019-06-15T13:30:03.109Z,25.50
2019-06-15T13:33:10.195Z,25.80
2019-06-15T13:36:17.192Z,25.90
2019-06-15T13:39:24.268Z,26.20
2019-06-15T13:42:31.460Z,26.40
2019-06-15T13:45:38.488Z,26.30
2019-06-15T13:48:45.490Z,26.40
2019-06-15T13:51:52.505Z,26.40
2019-06-15T13:54:59.484Z,26.60
2019-06-15T13:58:06.509Z,26.70
2019-06-15T14:01:13.539Z,26.50
2019-06-15T14:04:20.587Z,26.30
2019-06-15T14:07:27.599Z,26.20
2019-06-15T14:10:34.589Z,26.20
2019-06-15T14:13:41.608Z,26.30
2019-06-15T14:16:48.624Z,26.10
2019-06-15T14:19:55.670Z,26.20
2019-06-15T14:23:02.676Z,26.30
2019-06-15T14:26:09.752Z,26.40
2019-06-15T14:29:17.575Z,26.50
2019-06-15T14:32:24.590Z,26.40
2019-06-15T14:35:31.574Z,26.40
2019-06-15T14:38:38.631Z,26.30
2019-06-15T14:41:47.611Z,26.10
2019-06-15T14:44:54.236Z,25.90
2019-06-15T14:48:01.248Z,25.90
2019-06-15T14:51:08.217Z,25.50
2019-06-15T14:54:16.211Z,25.40
2019-06-15T14:57:23.236Z,25.30
2019-06-15T15:00:30.219Z,25.30
2019-06-15T15:03:37.839Z,25.10
2019-06-15T15:06:47.047Z,25.10
2019-06-15T15:09:53.524Z,25.00
2019-06-15T15:13:00.537Z,24.90
2019-06-15T15:16:07.584Z,24.90
2019-06-15T15:19:16.555Z,25.00
2019-06-15T15:22:23.194Z,24.80
2019-06-15T15:25:30.924Z,24.90
2019-06-15T15:28:38.660Z,25.10
2019-06-15T15:31:46.708Z,25.20
2019-06-15T15:34:55.824Z,25.50
2019-06-15T15:38:02.476Z,25.40
2019-06-15T15:41:09.513Z,25.50
2019-06-15T15:44:16.572Z,25.60
2019-06-15T15:47:23.575Z,25.50
2019-06-15T15:50:30.563Z,25.40
2019-06-15T15:53:37.638Z,25.30
2019-06-15T15:56:46.716Z,25.20
2019-06-15T15:59:53.338Z,25.00
2019-06-15T16:03:00.349Z,24.80
2019-06-15T16:06:07.395Z,24.90
2019-06-15T16:09:16.878Z,24.90
2019-06-15T16:12:23.191Z,25.00
2019-06-15T16:15:30.151Z,24.90
2019-06-15T16:18:37.717Z,24.90
2019-06-15T16:21:46.957Z,24.80
2019-06-15T16:24:53.338Z,24.60
2019-06-15T16:28:00.542Z,24.60
2019-06-15T16:31:13.162Z,24.50
2019-06-15T16:34:16.285Z,24.30
2019-06-15T16:37:25.829Z,24.20
2019-06-15T16:40:38.216Z,24.20
2019-06-15T16:43:46.185Z,24.10
2019-06-15T16:46:53.170Z,24.10
2019-06-15T16:50:00.172Z,24.10
2019-06-15T16:53:07.229Z,24.10
2019-06-15T16:56:16.483Z,24.00
2019-06-15T16:59:22.893Z,24.00
2019-06-15T17:02:29.884Z,24.10
2019-06-15T17:05:36.890Z,24.00
2019-06-15T17:08:46.304Z,23.90
2019-06-15T17:11:52.543Z,23.80
2019-06-15T17:14:59.578Z,23.80
2019-06-15T17:18:06.994Z,24.00
2019-06-15T17:21:14.007Z,23.90
2019-06-15T17:24:21.043Z,23.80
2019-06-15T17:27:28.051Z,23.60
2019-06-15T17:30:37.022Z,23.60
2019-06-15T17:33:43.719Z,23.40
2019-06-15T17:36:50.717Z,23.40
2019-06-15T17:39:57.763Z,23.40
2019-06-15T17:43:06.611Z,23.30
2019-06-15T17:46:13.401Z,23.30
2019-06-15T17:49:20.426Z,23.20
2019-06-15T17:52:27.403Z,23.10
2019-06-15T17:55:36.555Z,23.10
2019-06-15T17:58:43.102Z,23.00
2019-06-15T18:01:50.140Z,22.90
2019-06-15T18:04:57.138Z,22.80
2019-06-15T18:08:06.533Z,22.80
2019-06-15T18:11:12.838Z,22.70
2019-06-15T18:14:19.861Z,22.60
2019-06-15T18:17:26.839Z,22.50
2019-06-15T18:20:36.278Z,22.50
2019-06-15T18:23:42.471Z,22.40
2019-06-15T18:26:49.469Z,22.40
2019-06-15T18:29:56.532Z,22.40
2019-06-15T18:33:03.527Z,22.30
2019-06-15T18:36:10.566Z,22.30
2019-06-15T18:39:18.022Z,22.30
2019-06-15T18:42:25.970Z,22.30
2019-06-15T18:45:33.037Z,22.30
2019-06-15T18:48:40.042Z,22.30
2019-06-15T18:51:47.064Z,22.30
2019-06-15T18:54:56.024Z,22.20
2019-06-15T18:58:02.749Z,22.10
2019-06-15T19:01:09.800Z,22.10
2019-06-15T19:04:24.554Z,22.10
2019-06-15T19:07:26.951Z,22.00
2019-06-15T19:10:35.363Z,21.90
2019-06-15T19:13:42.431Z,21.80
2019-06-15T19:16:49.450Z,21.60
2019-06-15T19:19:57.245Z,21.40
2019-06-15T19:23:06.558Z,21.30
2019-06-15T19:26:12.872Z,21.10
2019-06-15T19:29:19.941Z,20.90
2019-06-15T19:32:26.922Z,20.80
2019-06-15T19:35:36.052Z,20.70
2019-06-15T19:38:42.647Z,20.50
2019-06-15T19:41:49.655Z,20.30
2019-06-15T19:44:56.703Z,20.10
2019-06-15T19:48:06.350Z,20.00
2019-06-15T19:51:12.325Z,19.90
2019-06-15T19:54:19.364Z,19.90
2019-06-15T19:57:27.141Z,19.80
2019-06-15T20:00:36.165Z,19.70
2019-06-15T20:03:42.750Z,19.60
2019-06-15T20:06:49.765Z,19.50
2019-06-15T20:09:57.061Z,19.40
2019-06-15T20:13:04.059Z,19.30
2019-06-15T20:16:11.020Z,19.20
2019-06-15T20:19:18.028Z,19.10
2019-06-15T20:22:27.466Z,19.10
2019-06-15T20:25:33.604Z,19.00
2019-06-15T20:28:40.600Z,19.00
2019-06-15T20:31:47.602Z,18.90
2019-06-15T20:34:54.759Z,18.80
2019-06-15T20:38:01.744Z,18.70
2019-06-15T20:41:08.788Z,18.60
2019-06-15T20:44:16.550Z,18.50
2019-06-15T20:47:23.587Z,18.30
2019-06-15T20:50:30.556Z,18.20
2019-06-15T20:53:37.571Z,18.20
2019-06-15T20:56:46.166Z,18.10
2019-06-15T20:59:56.360Z,18.00
2019-06-15T21:03:02.679Z,17.90
2019-06-15T21:06:09.700Z,17.90
2019-06-15T21:09:18.810Z,17.80
2019-06-15T21:12:26.889Z,17.70
2019-06-15T21:15:37.014Z,17.60
2019-06-15T21:18:46.451Z,17.60
2019-06-15T21:21:52.599Z,17.50
2019-06-15T21:24:59.630Z,17.40
2019-06-15T21:28:06.846Z,17.40
2019-06-15T21:31:16.543Z,17.30
2019-06-15T21:34:23.351Z,17.20
2019-06-15T21:37:30.334Z,17.10
2019-06-15T21:40:37.362Z,17.00
2019-06-15T21:43:46.984Z,16.90
2019-06-15T21:46:53.016Z,16.80
2019-06-15T21:50:00.002Z,16.80
2019-06-15T21:53:07.116Z,16.70
2019-06-15T21:56:16.099Z,16.70
2019-06-15T21:59:22.771Z,16.60
2019-06-15T22:02:29.781Z,16.60
2019-06-15T22:05:36.909Z,16.50
2019-06-15T22:08:43.880Z,16.50
2019-06-15T22:11:50.951Z,16.30
2019-06-15T22:14:57.926Z,16.30
2019-06-15T22:18:06.820Z,16.30
2019-06-15T22:21:16.000Z,16.20
2019-06-15T22:24:22.096Z,16.10
2019-06-15T22:27:29.098Z,16.00
2019-06-15T22:30:36.669Z,15.90
2019-06-15T22:33:43.906Z,15.80
2019-06-15T22:36:50.922Z,15.70
2019-06-15T22:39:57.882Z,15.50
2019-06-15T22:43:06.867Z,15.50
2019-06-15T22:46:13.499Z,15.40
2019-06-15T22:49:20.501Z,15.30
2019-06-15T22:52:27.475Z,15.30
2019-06-15T22:55:36.751Z,15.30
2019-06-15T22:58:43.093Z,15.30
2019-06-15T23:01:50.075Z,15.30
2019-06-15T23:04:57.077Z,15.30
2019-06-15T23:08:06.800Z,15.30
2019-06-15T23:11:12.745Z,15.30
2019-06-15T23:14:19.795Z,15.10
2019-06-15T23:17:26.797Z,15.00
2019-06-15T23:20:33.807Z,15.10
2019-06-15T23:23:40.801Z,15.10
2019-06-15T23:26:48.681Z,15.20
2019-06-15T23:29:57.007Z,15.10
2019-06-15T23:33:06.358Z,14.90
2019-06-15T23:36:17.244Z,14.80
2019-06-15T23:39:26.880Z,14.70
2019-06-15T23:42:32.836Z,14.50
2019-06-15T23:45:39.813Z,14.50
2019-06-15T23:48:47.138Z,14.50
2019-06-15T23:51:54.164Z,14.30
2019-06-15T23:55:01.113Z,14.30
2019-06-15T23:58:08.102Z,14.20
